Time;durP1;ratioP1;P1;durP2;ratioP2;P2;SDS_P1;SDS_P2;PMS_P1;PMS_P2;Temp;Humidity;BMP_temperature;BMP_pressure;BME280_temperature;BME280_humidity;BME280_pressure;Samples;Min_cycle;Max_cycle;Signal;HPM_P1;HPM_P2
2021/01/18 00:01:29;;;;;;;22.35;15.90;;;1.10;99.90;;;;;;5054517;28;20024;-73
2021/01/18 00:03:55;;;;;;;23.90;17.27;;;1.10;99.90;;;;;;5054161;28;20020;-77
2021/01/18 00:06:21;;;;;;;23.27;16.58;;;0.90;99.90;;;;;;5072383;28;20031;-76
2021/01/18 00:08:47;;;;;;;23.58;15.73;;;1.00;99.90;;;;;;5072313;28;20024;-76
2021/01/18 00:11:15;;;;;;;22.15;16.27;;;0.90;99.90;;;;;;5054302;28;20020;-76
2021/01/18 00:13:42;;;;;;;21.85;14.57;;;1.00;99.90;;;;;;5054485;28;20059;-76
2021/01/18 00:16:08;;;;;;;21.35;15.40;;;0.90;99.90;;;;;;5053898;28;20028;-76
2021/01/18 00:18:33;;;;;;;23.50;16.45;;;0.90;99.90;;;;;;5071810;28;20395;-76
2021/01/18 00:20:59;;;;;;;19.35;14.00;;;0.80;99.90;;;;;;5071746;28;20052;-77
2021/01/18 00:23:25;;;;;;;23.15;17.30;;;0.90;99.90;;;;;;5037433;28;20029;-77
2021/01/18 00:25:51;;;;;;;20.73;14.55;;;0.80;99.90;;;;;;5071586;28;20107;-76
2021/01/18 00:28:17;;;;;;;21.10;15.77;;;0.80;99.90;;;;;;5071927;28;20039;-76
2021/01/18 00:30:43;;;;;;;21.00;15.43;;;0.90;99.90;;;;;;5071942;28;20039;-77
2021/01/18 00:33:09;;;;;;;20.50;14.65;;;0.90;99.90;;;;;;5053893;28;20500;-76
2021/01/18 00:35:35;;;;;;;20.80;14.73;;;0.90;99.90;;;;;;5053785;28;20158;-76
2021/01/18 00:38:01;;;;;;;19.17;13.85;;;0.80;99.90;;;;;;5053814;28;20024;-76
2021/01/18 00:40:27;;;;;;;19.63;14.68;;;0.80;99.90;;;;;;5053514;28;20092;-77
2021/01/18 00:42:53;;;;;;;20.90;14.80;;;0.80;99.90;;;;;;5053764;28;20032;-76
2021/01/18 00:45:20;;;;;;;19.38;15.23;;;0.90;99.90;;;;;;5071414;28;20037;-77
2021/01/18 00:47:56;;;;;;;19.13;14.85;;;1.00;99.90;;;;;;5071617;28;20372;-77
2021/01/18 00:50:24;;;;;;;18.83;13.77;;;1.00;99.90;;;;;;5053659;28;20047;-77
2021/01/18 00:52:52;;;;;;;17.80;13.45;;;1.00;99.90;;;;;;5071268;28;20020;-77
2021/01/18 00:55:20;;;;;;;16.20;12.85;;;1.00;99.90;;;;;;5071314;28;20032;-76
2021/01/18 00:57:47;;;;;;;17.35;13.13;;;1.00;99.90;;;;;;5071165;28;20499;-76
2021/01/18 01:00:18;;;;;;;16.02;12.48;;;1.00;99.90;;;;;;5053407;28;20028;-76
2021/01/18 01:02:46;;;;;;;19.23;13.90;;;1.10;99.90;;;;;;5053151;28;20052;-76
2021/01/18 01:05:15;;;;;;;16.75;12.57;;;1.20;99.90;;;;;;5071047;28;20480;-75
2021/01/18 01:07:45;;;;;;;16.67;12.98;;;1.10;99.90;;;;;;5036372;28;20426;-76
2021/01/18 01:10:24;;;;;;;17.77;12.43;;;1.10;99.90;;;;;;5053278;28;20024;-76
2021/01/18 01:12:56;;;;;;;14.60;11.63;;;1.20;99.90;;;;;;5070960;28;20079;-77
2021/01/18 01:15:22;;;;;;;18.52;13.40;;;1.20;99.90;;;;;;5053131;28;20048;-76
2021/01/18 01:17:48;;;;;;;17.02;12.23;;;1.30;99.90;;;;;;5052889;28;20446;-76
2021/01/18 01:20:16;;;;;;;14.45;11.10;;;1.20;99.90;;;;;;5071275;28;20028;-76
2021/01/18 01:22:42;;;;;;;14.52;11.10;;;1.30;99.90;;;;;;5070699;28;20028;-76
2021/01/18 01:25:10;;;;;;;15.18;11.10;;;1.30;99.90;;;;;;5052948;28;20033;-77
2021/01/18 01:27:37;;;;;;;15.02;11.40;;;1.30;99.90;;;;;;5052849;28;20043;-77
2021/01/18 01:30:13;;;;;;;17.48;12.68;;;1.20;99.90;;;;;;5070990;28;20040;-76
2021/01/18 01:32:41;;;;;;;16.02;11.60;;;1.30;99.90;;;;;;5055034;23;20048;-74
2021/01/18 01:35:09;;;;;;;14.32;11.60;;;1.40;99.90;;;;;;5027790;28;20400;-74
2021/01/18 01:37:36;;;;;;;16.30;12.27;;;1.20;99.90;;;;;;5029881;28;20026;-74
2021/01/18 01:40:03;;;;;;;17.23;12.45;;;1.10;99.90;;;;;;5030267;28;20036;-74
2021/01/18 01:42:29;;;;;;;14.35;11.82;;;1.10;99.90;;;;;;5030159;28;20064;-74
2021/01/18 01:44:55;;;;;;;18.40;13.00;;;1.10;99.90;;;;;;5030036;28;20061;-74
2021/01/18 01:47:29;;;;;;;15.48;11.88;;;1.10;99.90;;;;;;5031339;28;20509;-74
2021/01/18 01:49:57;;;;;;;41.85;15.77;;;1.20;99.90;;;;;;5051003;28;20021;-74
2021/01/18 01:52:24;;;;;;;15.38;11.55;;;1.20;99.90;;;;;;5051268;28;20067;-73
2021/01/18 01:54:54;;;;;;;16.63;11.30;;;1.10;99.90;;;;;;5036019;28;20032;-74
2021/01/18 01:57:20;;;;;;;14.23;10.80;;;1.20;99.90;;;;;;5037424;28;20036;-74
2021/01/18 01:59:47;;;;;;;12.32;10.18;;;1.30;99.90;;;;;;5055080;28;20029;-75
2021/01/18 02:02:14;;;;;;;14.20;10.70;;;1.30;99.90;;;;;;5055000;28;20384;-74
2021/01/18 02:04:40;;;;;;;12.80;9.88;;;1.30;99.90;;;;;;5037029;28;20025;-74
2021/01/18 02:07:24;;;;;;;11.15;8.82;;;1.20;99.90;;;;;;5037203;28;20096;-74
2021/01/18 02:09:50;;;;;;;10.98;8.75;;;1.30;99.90;;;;;;5036726;28;20025;-75
2021/01/18 02:12:16;;;;;;;12.93;10.27;;;1.20;99.90;;;;;;5055163;28;20021;-74
2021/01/18 02:15:10;;;;;;;12.38;9.68;;;1.40;99.90;;;;;;5054712;28;20051;-75
2021/01/18 02:18:07;;;;;;;12.93;10.68;;;1.50;99.90;;;;;;5054874;28;20427;-74
2021/01/18 02:21:04;;;;;;;15.55;10.70;;;1.40;99.90;;;;;;5054712;28;20048;-74
2021/01/18 02:24:04;;;;;;;12.35;10.23;;;1.50;99.90;;;;;;5036815;28;20033;-74
2021/01/18 02:26:54;;;;;;;13.60;10.75;;;1.40;99.90;;;;;;4995760;28;20082;-74
2021/01/18 02:29:54;;;;;;;14.20;11.07;;;1.40;99.90;;;;;;5054787;28;20408;-74
2021/01/18 02:32:58;;;;;;;12.55;10.00;;;1.30;99.90;;;;;;5054655;28;20052;-74
2021/01/18 02:35:57;;;;;;;12.55;10.13;;;1.50;99.90;;;;;;5036344;28;20476;-74
2021/01/18 02:38:44;;;;;;;12.50;10.05;;;1.40;99.90;;;;;;5054395;28;20024;-73
2021/01/18 02:41:20;;;;;;;14.68;10.05;;;1.30;99.90;;;;;;5054078;28;20412;-74
2021/01/18 02:43:54;;;;;;;12.20;9.63;;;1.40;99.90;;;;;;5054359;28;20056;-74
2021/01/18 02:46:21;;;;;;;12.02;10.40;;;1.40;99.90;;;;;;5054202;28;20024;-74
2021/01/18 02:48:48;;;;;;;11.55;9.38;;;1.40;99.90;;;;;;5019849;28;20025;-74
2021/01/18 02:51:20;;;;;;;12.55;9.82;;;1.40;99.90;;;;;;5053958;28;20033;-74
2021/01/18 02:53:59;;;;;;;12.23;9.15;;;1.50;99.90;;;;;;5054149;28;20026;-74
2021/01/18 02:56:27;;;;;;;12.27;8.82;;;1.30;99.90;;;;;;5036003;28;20035;-74
2021/01/18 02:58:58;;;;;;;11.45;8.95;;;1.20;99.90;;;;;;5053647;28;20029;-72
2021/01/18 03:01:50;;;;;;;12.10;9.25;;;1.10;99.90;;;;;;5053257;28;20029;-72
2021/01/18 03:04:20;;;;;;;14.13;8.98;;;1.10;99.90;;;;;;5035360;28;20393;-72
2021/01/18 03:07:00;;;;;;;13.20;9.63;;;1.00;99.90;;;;;;5052357;28;20025;-72
2021/01/18 03:09:34;;;;;;;16.80;10.13;;;1.10;99.90;;;;;;5053640;28;20027;-72
2021/01/18 03:12:05;;;;;;;12.88;9.88;;;1.20;99.90;;;;;;5053289;28;20108;-73
2021/01/18 03:14:37;;;;;;;9.60;7.20;;;1.10;99.90;;;;;;5019088;28;20053;-72
2021/01/18 03:17:05;;;;;;;13.15;10.60;;;1.10;99.90;;;;;;5053235;28;20388;-72
2021/01/18 03:19:42;;;;;;;12.75;10.18;;;1.10;99.90;;;;;;5053292;28;20537;-73
2021/01/18 03:22:21;;;;;;;13.85;10.80;;;1.20;99.90;;;;;;5053370;28;20384;-72
2021/01/18 03:24:47;;;;;;;13.65;9.73;;;1.10;99.90;;;;;;5053234;28;20017;-72
2021/01/18 03:27:13;;;;;;;15.82;10.68;;;1.10;99.90;;;;;;5053054;28;20033;-72
2021/01/18 03:29:39;;;;;;;14.07;8.95;;;1.20;99.90;;;;;;5035366;28;20053;-73
2021/01/18 03:32:06;;;;;;;14.18;9.88;;;1.20;99.90;;;;;;5034947;28;20421;-73
2021/01/18 03:34:41;;;;;;;15.23;9.68;;;1.30;99.90;;;;;;5053267;28;20035;-73
2021/01/18 03:37:07;;;;;;;12.60;9.30;;;1.30;99.90;;;;;;5052866;28;20086;-73
2021/01/18 03:39:33;;;;;;;13.73;9.45;;;1.20;99.90;;;;;;5052778;28;20262;-73
2021/01/18 03:41:59;;;;;;;13.20;9.55;;;1.20;99.90;;;;;;5052899;28;20048;-73
2021/01/18 03:44:24;;;;;;;12.43;9.98;;;1.20;99.90;;;;;;5052369;28;20063;-73
2021/01/18 03:46:50;;;;;;;12.35;9.82;;;1.20;99.90;;;;;;5052701;28;20025;-73
2021/01/18 03:49:16;;;;;;;11.98;9.10;;;1.20;99.90;;;;;;5052434;28;20021;-73
2021/01/18 03:51:42;;;;;;;13.25;9.75;;;1.20;99.90;;;;;;5052622;28;20473;-73
2021/01/18 03:54:07;;;;;;;12.75;9.70;;;1.20;99.90;;;;;;5052282;28;20059;-72
2021/01/18 03:56:40;;;;;;;14.43;9.70;;;1.30;99.90;;;;;;5052554;28;20067;-73
2021/01/18 03:59:06;;;;;;;14.25;9.85;;;1.20;99.90;;;;;;5052281;28;20021;-72
2021/01/18 04:01:39;;;;;;;13.27;9.15;;;1.20;99.90;;;;;;5052434;28;20076;-73
2021/01/18 04:04:05;;;;;;;16.08;10.00;;;1.10;99.90;;;;;;5052186;28;20032;-73
2021/01/18 04:06:36;;;;;;;14.63;9.27;;;1.10;99.90;;;;;;5052346;28;20151;-73
2021/01/18 04:09:02;;;;;;;19.58;10.35;;;1.10;99.90;;;;;;5052064;28;20435;-72
2021/01/18 04:11:28;;;;;;;17.92;10.77;;;1.20;99.90;;;;;;5052265;28;20025;-73
2021/01/18 04:13:53;;;;;;;16.42;9.43;;;1.10;99.90;;;;;;5034069;28;20029;-73
2021/01/18 04:16:19;;;;;;;15.88;9.77;;;1.20;99.90;;;;;;5051852;28;20077;-72
2021/01/18 04:18:45;;;;;;;16.38;11.35;;;1.10;99.90;;;;;;5033877;28;20651;-73
2021/01/18 04:21:10;;;;;;;17.75;10.88;;;1.10;99.90;;;;;;5051929;28;20025;-73
2021/01/18 04:23:36;;;;;;;15.45;9.65;;;1.10;99.90;;;;;;5052048;28;20025;-73
2021/01/18 04:26:02;;;;;;;28.90;12.02;;;1.10;99.90;;;;;;5051976;28;20028;-72
2021/01/18 04:28:28;;;;;;;29.50;12.32;;;1.10;99.90;;;;;;5051942;28;20025;-72
2021/01/18 04:30:53;;;;;;;17.83;12.45;;;1.10;99.90;;;;;;5051619;28;20021;-73
2021/01/18 04:33:19;;;;;;;18.02;10.45;;;1.10;99.90;;;;;;5051780;28;20032;-73
2021/01/18 04:35:45;;;;;;;17.90;11.18;;;1.10;99.90;;;;;;5051439;28;20063;-73
2021/01/18 04:38:10;;;;;;;20.33;11.13;;;1.00;99.90;;;;;;5051808;28;20021;-73
2021/01/18 04:40:36;;;;;;;15.43;10.88;;;1.10;99.90;;;;;;5033649;28;20079;-72
2021/01/18 04:43:03;;;;;;;16.90;11.07;;;1.00;99.90;;;;;;5051619;28;20032;-72
2021/01/18 04:45:30;;;;;;;26.30;13.07;;;1.00;99.90;;;;;;5051276;28;20397;-73
2021/01/18 04:47:57;;;;;;;21.13;12.20;;;1.00;99.90;;;;;;5051630;28;20546;-72
2021/01/18 04:50:25;;;;;;;19.08;12.07;;;1.00;99.90;;;;;;5051300;28;20039;-72
2021/01/18 04:52:54;;;;;;;28.98;12.75;;;0.90;99.90;;;;;;5051555;28;20056;-73
2021/01/18 04:55:39;;;;;;;32.75;12.55;;;1.00;99.90;;;;;;5051038;28;20056;-73
2021/01/18 04:58:12;;;;;;;21.52;12.15;;;1.00;99.90;;;;;;5051570;28;20487;-73
2021/01/18 05:00:49;;;;;;;26.02;11.68;;;1.00;99.90;;;;;;5051232;28;20680;-72
2021/01/18 05:03:17;;;;;;;24.27;11.95;;;1.00;99.90;;;;;;5051716;28;20036;-73
2021/01/18 05:05:55;;;;;;;24.13;11.38;;;0.90;99.90;;;;;;5050989;28;20135;-72
2021/01/18 05:08:44;;;;;;;20.55;11.07;;;0.90;99.90;;;;;;5033586;28;20025;-72
2021/01/18 05:11:15;;;;;;;21.70;11.07;;;0.80;99.90;;;;;;5033326;28;20021;-72
2021/01/18 05:13:41;;;;;;;20.92;11.75;;;0.80;99.90;;;;;;5033739;28;20377;-73
2021/01/18 05:16:07;;;;;;;23.48;14.20;;;0.80;99.90;;;;;;5050681;28;20116;-72
2021/01/18 05:18:35;;;;;;;17.00;11.48;;;0.80;99.90;;;;;;5033028;28;20048;-73
2021/01/18 05:21:03;;;;;;;17.60;11.85;;;0.80;99.90;;;;;;5033169;28;20075;-72
2021/01/18 05:23:28;;;;;;;23.30;13.07;;;0.70;99.90;;;;;;5051086;28;20037;-72
2021/01/18 05:26:13;;;;;;;24.27;12.38;;;0.60;99.90;;;;;;5050834;28;20450;-72
2021/01/18 05:28:49;;;;;;;28.50;12.20;;;0.70;99.90;;;;;;5031995;28;20071;-72
2021/01/18 05:31:27;;;;;;;29.70;12.90;;;0.70;99.90;;;;;;5050915;28;20053;-72
2021/01/18 05:33:53;;;;;;;17.88;12.13;;;0.80;99.90;;;;;;5050480;28;20036;-72
2021/01/18 05:36:52;;;;;;;23.23;12.88;;;0.90;99.90;;;;;;5032791;28;20113;-73
2021/01/18 05:39:19;;;;;;;33.83;12.52;;;0.90;99.90;;;;;;5007222;28;20048;-73
2021/01/18 05:41:47;;;;;;;19.02;10.90;;;0.90;99.90;;;;;;5050760;28;20064;-73
2021/01/18 05:44:13;;;;;;;20.23;11.07;;;1.00;99.90;;;;;;5050397;28;20029;-73
2021/01/18 05:46:41;;;;;;;19.23;10.65;;;1.00;99.90;;;;;;5050730;28;20033;-73
2021/01/18 05:49:16;;;;;;;25.13;12.05;;;1.00;99.90;;;;;;5032402;28;20021;-73
2021/01/18 05:51:48;;;;;;;43.15;19.23;;;1.00;99.90;;;;;;5050709;28;20061;-73
2021/01/18 05:54:19;;;;;;;26.35;13.82;;;1.00;99.90;;;;;;5032482;28;20059;-73
2021/01/18 05:56:46;;;;;;;25.60;13.38;;;1.10;99.90;;;;;;5050772;28;20020;-72
2021/01/18 05:59:16;;;;;;;22.85;11.52;;;1.10;99.90;;;;;;5032708;28;20484;-73
2021/01/18 06:01:43;;;;;;;18.20;11.35;;;1.10;99.90;;;;;;5050590;28;20032;-72
2021/01/18 06:04:19;;;;;;;27.17;11.77;;;1.00;99.90;;;;;;5050168;28;20496;-72
2021/01/18 06:07:02;;;;;;;26.42;13.07;;;1.00;99.90;;;;;;5050494;28;20029;-75
2021/01/18 06:09:48;;;;;;;20.02;10.60;;;1.00;99.90;;;;;;5050226;28;20492;-74
2021/01/18 06:12:28;;;;;;;22.23;12.43;;;1.10;99.90;;;;;;5050369;28;20018;-74
2021/01/18 06:15:13;;;;;;;18.98;9.90;;;1.10;99.90;;;;;;5050010;28;20017;-74
2021/01/18 06:17:57;;;;;;;18.55;9.45;;;1.10;99.90;;;;;;5050129;28;20035;-74
2021/01/18 06:20:27;;;;;;;29.00;10.88;;;1.10;99.90;;;;;;5049973;28;20025;-74
2021/01/18 06:22:58;;;;;;;20.70;10.65;;;1.10;99.90;;;;;;5050420;28;20029;-77
2021/01/18 06:25:31;;;;;;;15.57;9.32;;;1.00;99.90;;;;;;5050017;28;20029;-77
2021/01/18 06:27:57;;;;;;;20.73;11.48;;;0.90;99.90;;;;;;5050366;28;20021;-75
2021/01/18 06:30:25;;;;;;;22.25;11.43;;;1.00;99.90;;;;;;5049143;28;20032;-77
2021/01/18 06:32:52;;;;;;;18.00;10.07;;;0.90;99.90;;;;;;5038992;28;20017;-74
2021/01/18 06:35:27;;;;;;;16.52;10.95;;;0.90;99.90;;;;;;5021351;28;20021;-73
2021/01/18 06:38:03;;;;;;;20.40;10.98;;;0.90;99.90;;;;;;5032454;28;20021;-75
2021/01/18 06:40:38;;;;;;;17.80;10.98;;;1.00;99.90;;;;;;5017628;28;20021;-74
2021/01/18 06:43:05;;;;;;;22.27;11.38;;;0.90;99.90;;;;;;4999823;28;20033;-77
2021/01/18 06:45:39;;;;;;;15.82;10.48;;;0.90;99.90;;;;;;5015894;28;20026;-74
2021/01/18 06:48:08;;;;;;;19.38;10.88;;;0.90;99.90;;;;;;5024617;28;20028;-77
2021/01/18 06:50:37;;;;;;;25.98;12.93;;;1.00;99.90;;;;;;5051655;28;20029;-74
2021/01/18 06:53:24;;;;;;;26.92;12.13;;;1.00;99.90;;;;;;5035697;28;20074;-74
2021/01/18 06:56:13;;;;;;;18.23;10.65;;;1.00;99.90;;;;;;5053483;28;20024;-74
2021/01/18 06:58:51;;;;;;;21.70;10.75;;;1.00;99.90;;;;;;5053545;28;20025;-74
2021/01/18 07:01:25;;;;;;;15.27;10.65;;;1.00;99.90;;;;;;5052880;28;20045;-75
2021/01/18 07:03:57;;;;;;;27.13;12.30;;;1.10;99.90;;;;;;5053199;28;20071;-75
2021/01/18 07:06:33;;;;;;;17.05;10.10;;;1.20;99.90;;;;;;5033678;28;20032;-75
2021/01/18 07:09:10;;;;;;;14.23;9.05;;;1.00;99.90;;;;;;5033444;28;20026;-74
2021/01/18 07:11:36;;;;;;;18.40;10.65;;;1.00;99.90;;;;;;5032829;28;20096;-75
2021/01/18 07:14:05;;;;;;;23.75;10.48;;;1.10;99.90;;;;;;5033324;28;20026;-75
2021/01/18 07:16:31;;;;;;;15.55;10.25;;;1.00;99.90;;;;;;5033267;28;20025;-75
2021/01/18 07:19:00;;;;;;;20.83;10.00;;;1.10;99.90;;;;;;5033181;28;20029;-75
2021/01/18 07:21:30;;;;;;;23.27;11.02;;;1.20;99.90;;;;;;5032000;28;20057;-75
2021/01/18 07:24:00;;;;;;;16.90;11.02;;;1.10;99.90;;;;;;5032825;28;20022;-75
2021/01/18 07:26:46;;;;;;;20.80;10.10;;;1.10;99.90;;;;;;5032989;28;20017;-75
2021/01/18 07:29:14;;;;;;;20.02;10.02;;;1.20;99.90;;;;;;5032941;28;20014;-75
2021/01/18 07:31:45;;;;;;;15.20;10.07;;;1.20;99.90;;;;;;5031719;28;20032;-75
2021/01/18 07:34:21;;;;;;;17.08;10.50;;;1.10;99.90;;;;;;5031231;28;20033;-75
2021/01/18 07:36:47;;;;;;;21.80;11.23;;;1.10;99.90;;;;;;5029752;28;20021;-75
2021/01/18 07:39:26;;;;;;;16.48;10.63;;;1.10;99.90;;;;;;5019524;28;20048;-75
2021/01/18 07:41:53;;;;;;;22.65;10.15;;;1.20;99.90;;;;;;5037683;23;20123;-75
2021/01/18 07:44:38;;;;;;;23.00;11.98;;;1.20;99.90;;;;;;5048149;28;20043;-76
2021/01/18 07:47:09;;;;;;;23.05;10.65;;;1.30;99.90;;;;;;5046180;28;20047;-76
2021/01/18 07:49:40;;;;;;;18.02;10.35;;;1.30;99.90;;;;;;5062275;28;20027;-75
2021/01/18 07:52:13;;;;;;;10.95;7.45;;;1.30;99.90;;;;;;5057731;28;20576;-77
2021/01/18 07:54:39;;;;;;;30.35;10.68;;;1.20;99.90;;;;;;5060300;28;20033;-78
2021/01/18 07:57:26;;;;;;;17.85;9.70;;;1.20;99.90;;;;;;5038690;28;20047;-77
2021/01/18 08:00:18;;;;;;;17.70;10.95;;;1.20;99.90;;;;;;5041020;28;20029;-78
2021/01/18 08:03:05;;;;;;;16.00;10.05;;;1.20;99.90;;;;;;5041814;28;20021;-77
2021/01/18 08:05:35;;;;;;;18.10;8.15;;;1.30;99.90;;;;;;5044236;28;20357;-77
2021/01/18 08:08:02;;;;;;;19.20;8.68;;;1.30;99.90;;;;;;5066299;28;20028;-78
2021/01/18 08:10:52;;;;;;;18.48;8.55;;;1.40;99.90;;;;;;5056055;28;20016;-78
2021/01/18 08:13:42;;;;;;;20.15;9.00;;;1.30;99.90;;;;;;5039813;28;20489;-78
2021/01/18 08:16:21;;;;;;;20.83;9.27;;;1.20;99.90;;;;;;5062815;28;20092;-78
2021/01/18 08:18:51;;;;;;;11.75;7.88;;;1.30;99.90;;;;;;5056240;28;20371;-78
2021/01/18 08:21:32;;;;;;;12.48;8.75;;;1.30;99.90;;;;;;5047388;28;20035;-78
2021/01/18 08:24:02;;;;;;;15.38;9.07;;;1.20;99.90;;;;;;5063417;28;20090;-78
2021/01/18 08:26:28;;;;;;;15.88;9.20;;;1.20;99.90;;;;;;5047030;28;20074;-77
2021/01/18 08:28:54;;;;;;;14.30;8.80;;;1.30;99.90;;;;;;5032345;28;20028;-77
2021/01/18 08:31:20;;;;;;;15.70;8.50;;;1.30;99.90;;;;;;5070331;28;20047;-78
2021/01/18 08:33:46;;;;;;;14.55;9.40;;;1.30;99.90;;;;;;5069899;28;20052;-78
2021/01/18 08:36:30;;;;;;;16.95;9.65;;;1.40;99.90;;;;;;5051844;28;20490;-78
2021/01/18 08:39:12;;;;;;;17.52;9.60;;;1.50;99.90;;;;;;5044520;28;20063;-78
2021/01/18 08:41:45;;;;;;;15.68;8.52;;;1.40;99.90;;;;;;5063240;28;20474;-78
2021/01/18 08:44:12;;;;;;;20.83;8.30;;;1.40;99.90;;;;;;5069685;28;20500;-78
2021/01/18 08:46:39;;;;;;;13.98;7.65;;;1.50;99.90;;;;;;5070366;28;20027;-76
2021/01/18 08:49:20;;;;;;;17.42;9.25;;;1.50;99.90;;;;;;5048920;28;20029;-76
2021/01/18 08:51:48;;;;;;;17.50;7.83;;;1.50;99.90;;;;;;5069651;28;20671;-75
2021/01/18 08:54:36;;;;;;;18.25;8.95;;;1.50;99.90;;;;;;5067493;28;20044;-75
2021/01/18 08:57:25;;;;;;;12.43;7.78;;;1.40;99.90;;;;;;5065807;28;20387;-75
2021/01/18 09:00:11;;;;;;;24.63;11.40;;;1.50;99.90;;;;;;5068719;28;20024;-75
2021/01/18 09:02:40;;;;;;;25.65;8.43;;;1.50;99.90;;;;;;5051169;28;20055;-76
2021/01/18 09:05:19;;;;;;;15.23;7.97;;;1.60;99.90;;;;;;5048614;28;20035;-76
2021/01/18 09:07:47;;;;;;;20.13;7.97;;;1.50;99.90;;;;;;5048587;28;20064;-76
2021/01/18 09:10:18;;;;;;;11.43;8.07;;;1.60;99.90;;;;;;5031282;28;20512;-76
2021/01/18 09:12:44;;;;;;;17.08;8.32;;;1.70;99.90;;;;;;5069123;28;20020;-75
2021/01/18 09:15:11;;;;;;;17.10;8.02;;;1.60;99.90;;;;;;5069201;28;20021;-75
2021/01/18 09:17:37;;;;;;;16.20;7.78;;;1.60;99.90;;;;;;5068840;28;20033;-76
2021/01/18 09:20:10;;;;;;;16.95;7.80;;;1.40;99.90;;;;;;5069227;28;20082;-75
2021/01/18 09:22:37;;;;;;;13.23;8.18;;;1.40;99.90;;;;;;5068821;28;20059;-75
2021/01/18 09:25:07;;;;;;;15.70;8.55;;;1.50;99.90;;;;;;5043583;28;20025;-75
2021/01/18 09:27:35;;;;;;;11.82;7.53;;;1.40;99.90;;;;;;5069409;28;20099;-75
2021/01/18 09:30:16;;;;;;;17.95;9.88;;;1.40;99.90;;;;;;5050551;28;20029;-76
2021/01/18 09:32:56;;;;;;;10.85;7.18;;;1.60;99.90;;;;;;5064837;28;20133;-78
2021/01/18 09:35:23;;;;;;;16.95;8.68;;;1.60;99.90;;;;;;5051688;28;20037;-76
2021/01/18 09:37:50;;;;;;;19.40;8.73;;;1.50;99.90;;;;;;5069218;28;20089;-78
2021/01/18 09:40:17;;;;;;;15.57;8.45;;;1.60;99.90;;;;;;5044656;28;20091;-76
2021/01/18 09:42:48;;;;;;;24.88;9.60;;;1.60;99.90;;;;;;5069059;28;20041;-76
2021/01/18 09:45:14;;;;;;;18.15;8.07;;;1.70;99.90;;;;;;5068433;28;20083;-76
2021/01/18 09:47:41;;;;;;;23.98;8.52;;;1.70;99.90;;;;;;5069058;28;20027;-76
2021/01/18 09:50:13;;;;;;;11.80;7.85;;;1.80;99.90;;;;;;5069289;28;20024;-76
2021/01/18 09:52:49;;;;;;;13.68;6.35;;;1.70;99.90;;;;;;5068405;28;20467;-76
2021/01/18 09:55:32;;;;;;;15.05;8.88;;;1.60;99.90;;;;;;5069179;28;20079;-76
2021/01/18 09:58:13;;;;;;;16.65;7.93;;;1.80;99.90;;;;;;5047283;28;20024;-77
2021/01/18 10:00:41;;;;;;;12.70;8.20;;;2.00;99.90;;;;;;5068858;28;20096;-76
2021/01/18 10:03:08;;;;;;;18.05;8.13;;;2.10;99.90;;;;;;5048011;28;20120;-76
2021/01/18 10:05:38;;;;;;;18.60;8.10;;;1.90;99.90;;;;;;5068973;28;20020;-75
2021/01/18 10:08:17;;;;;;;25.75;8.05;;;1.90;99.90;;;;;;5068718;28;20437;-76
2021/01/18 10:10:46;;;;;;;199.35;17.05;;;2.00;99.90;;;;;;5065388;28;20111;-76
2021/01/18 10:13:14;;;;;;;205.32;18.90;;;2.00;99.90;;;;;;5050113;28;20484;-76
2021/01/18 10:15:40;;;;;;;88.82;12.32;;;2.10;99.90;;;;;;5071873;28;20102;-77
2021/01/18 10:18:05;;;;;;;43.83;12.15;;;2.00;99.90;;;;;;5072844;28;20032;-76
2021/01/18 10:20:31;;;;;;;60.10;9.95;;;2.00;99.90;;;;;;5054839;28;20079;-75
2021/01/18 10:22:58;;;;;;;23.27;8.73;;;1.70;99.90;;;;;;5073459;28;20078;-76
2021/01/18 10:25:28;;;;;;;260.65;20.95;;;1.90;99.90;;;;;;5070622;28;20098;-76
2021/01/18 10:27:56;;;;;;;85.20;12.15;;;2.10;99.90;;;;;;5072520;28;20025;-76
2021/01/18 10:30:25;;;;;;;40.85;11.15;;;2.30;99.90;;;;;;5053836;28;20040;-76
2021/01/18 10:32:52;;;;;;;130.13;15.30;;;2.30;99.90;;;;;;5073018;28;20021;-76
2021/01/18 10:35:32;;;;;;;32.35;10.77;;;2.20;99.90;;;;;;5072210;28;20103;-76
2021/01/18 10:38:20;;;;;;;34.42;11.77;;;2.30;99.90;;;;;;5072616;28;20385;-76
2021/01/18 10:41:05;;;;;;;21.52;10.52;;;2.30;99.90;;;;;;5071835;28;20032;-76
2021/01/18 10:43:30;;;;;;;22.55;8.07;;;2.10;99.90;;;;;;5050346;28;20025;-76
2021/01/18 10:45:58;;;;;;;25.25;9.55;;;2.10;99.90;;;;;;5068160;28;20369;-76
2021/01/18 10:48:32;;;;;;;19.23;7.72;;;1.80;99.90;;;;;;5053812;28;20029;-76
2021/01/18 10:51:02;;;;;;;16.15;8.20;;;1.90;99.90;;;;;;5046654;28;20031;-76
2021/01/18 10:53:33;;;;;;;27.17;9.93;;;2.00;99.90;;;;;;5050253;28;20033;-76
2021/01/18 10:56:15;;;;;;;13.50;8.27;;;2.10;99.90;;;;;;5068218;28;20031;-76
2021/01/18 10:58:42;;;;;;;20.48;8.32;;;2.30;99.90;;;;;;5068189;28;20025;-76
2021/01/18 11:01:10;;;;;;;21.13;9.57;;;2.20;99.90;;;;;;5033358;28;20017;-75
2021/01/18 11:03:38;;;;;;;13.80;8.35;;;2.30;99.90;;;;;;5072072;28;20087;-76
2021/01/18 11:06:15;;;;;;;19.38;7.90;;;2.50;99.90;;;;;;5049292;28;20017;-76
2021/01/18 11:08:42;;;;;;;14.98;8.00;;;2.50;99.90;;;;;;5072201;28;20600;-77
2021/01/18 11:11:27;;;;;;;17.55;7.88;;;2.50;99.90;;;;;;5071450;28;20028;-76
2021/01/18 11:14:01;;;;;;;17.50;7.35;;;2.40;99.90;;;;;;5072034;28;20082;-76
2021/01/18 11:16:26;;;;;;;10.60;7.13;;;2.50;99.90;;;;;;5071211;28;20040;-76
2021/01/18 11:19:02;;;;;;;18.38;8.20;;;2.50;99.90;;;;;;5071728;28;20028;-75
2021/01/18 11:21:28;;;;;;;17.52;8.20;;;2.40;99.90;;;;;;5052621;28;20476;-77
2021/01/18 11:23:54;;;;;;;15.80;8.02;;;2.60;99.90;;;;;;5057828;28;20032;-78
2021/01/18 11:26:20;;;;;;;14.63;7.47;;;2.80;99.90;;;;;;5047456;28;20430;-76
2021/01/18 11:28:46;;;;;;;9.32;7.47;;;3.30;99.90;;;;;;5032897;28;20025;-76
2021/01/18 11:31:13;;;;;;;16.70;7.75;;;3.30;99.90;;;;;;5070876;28;20035;-76
2021/01/18 11:33:39;;;;;;;18.70;7.68;;;3.10;99.90;;;;;;5070855;28;20029;-76
2021/01/18 11:36:05;;;;;;;10.38;6.38;;;3.30;99.90;;;;;;5071208;28;20017;-76
2021/01/18 11:38:31;;;;;;;19.75;6.72;;;3.30;99.90;;;;;;5069120;28;20063;-76
2021/01/18 11:40:56;;;;;;;17.13;6.90;;;3.80;99.90;;;;;;5052990;28;20073;-76
2021/01/18 11:43:22;;;;;;;13.73;5.85;;;4.70;99.30;;;;;;5036222;28;20557;-76
2021/01/18 11:45:48;;;;;;;11.45;6.53;;;5.30;93.50;;;;;;5070613;28;20077;-76
2021/01/18 11:48:14;;;;;;;12.70;6.45;;;6.00;92.20;;;;;;5051872;28;20400;-76
2021/01/18 11:50:39;;;;;;;9.80;4.68;;;7.10;88.10;;;;;;5070694;28;20025;-76
2021/01/18 11:53:07;;;;;;;16.08;5.78;;;7.50;79.60;;;;;;5071624;28;20024;-76
2021/01/18 11:55:33;;;;;;;7.85;4.68;;;7.20;80.30;;;;;;5070443;28;20024;-76
2021/01/18 11:57:59;;;;;;;17.80;6.10;;;6.30;81.60;;;;;;5071009;28;20468;-76
2021/01/18 12:00:27;;;;;;;8.23;5.90;;;6.20;84.10;;;;;;5070168;28;20051;-76
2021/01/18 12:02:54;;;;;;;11.18;5.57;;;5.60;84.80;;;;;;5050033;28;20025;-76
2021/01/18 12:05:22;;;;;;;11.30;5.88;;;4.90;88.30;;;;;;5070185;28;20476;-75
2021/01/18 12:07:48;;;;;;;10.07;5.22;;;5.00;88.40;;;;;;5071177;28;20044;-76
2021/01/18 12:10:15;;;;;;;12.60;6.50;;;4.60;88.30;;;;;;5071204;28;20383;-76
2021/01/18 12:12:40;;;;;;;10.65;6.95;;;4.20;90.80;;;;;;5071014;28;20557;-77
2021/01/18 12:15:07;;;;;;;12.40;7.47;;;4.20;92.80;;;;;;5070742;28;20048;-77
2021/01/18 12:17:37;;;;;;;167.07;18.27;;;4.20;92.10;;;;;;5070114;28;20103;-77
2021/01/18 12:20:03;;;;;;;277.23;20.20;;;4.00;92.10;;;;;;5070860;28;20035;-77
2021/01/18 12:22:29;;;;;;;80.45;10.32;;;4.00;93.10;;;;;;5070826;28;20274;-76
2021/01/18 12:24:55;;;;;;;116.63;12.25;;;3.40;95.60;;;;;;5069819;28;20387;-77
2021/01/18 12:27:20;;;;;;;40.28;7.97;;;3.10;97.70;;;;;;5070168;28;20029;-77
2021/01/18 12:29:46;;;;;;;56.65;9.40;;;3.20;99.90;;;;;;5052235;28;20021;-77
2021/01/18 12:32:12;;;;;;;63.20;9.60;;;3.00;99.90;;;;;;5070084;28;20091;-77
2021/01/18 12:34:37;;;;;;;68.80;8.18;;;3.00;99.90;;;;;;5067731;28;20042;-77
2021/01/18 12:37:03;;;;;;;22.08;7.20;;;2.90;99.90;;;;;;5035267;28;20431;-77
2021/01/18 12:39:29;;;;;;;11.45;6.50;;;3.00;99.90;;;;;;5069669;28;20543;-77
2021/01/18 12:41:54;;;;;;;29.92;7.97;;;3.00;99.90;;;;;;5065659;28;20028;-77
2021/01/18 12:44:20;;;;;;;19.70;7.25;;;3.20;99.90;;;;;;5069521;28;20062;-77
2021/01/18 12:46:49;;;;;;;15.93;8.05;;;3.10;99.90;;;;;;5069563;28;20070;-77
2021/01/18 12:49:15;;;;;;;14.63;6.18;;;3.00;99.90;;;;;;5069662;28;20376;-77
2021/01/18 12:51:41;;;;;;;14.55;6.65;;;2.80;99.90;;;;;;5051519;28;20021;-77
2021/01/18 12:54:07;;;;;;;10.25;6.47;;;2.70;99.90;;;;;;5069271;28;20032;-77
2021/01/18 12:56:33;;;;;;;19.92;6.75;;;2.40;99.90;;;;;;5069430;28;20129;-77
2021/01/18 12:58:59;;;;;;;20.77;7.65;;;2.60;99.90;;;;;;5069040;28;20024;-77
2021/01/18 13:01:29;;;;;;;17.17;7.53;;;2.70;99.90;;;;;;5069759;28;20419;-78